TAF KDVL
AMD KDVL 080317Z 0803/0824 27007KT P6SM SCT023 FM080900 31006KT P6SM BKN020 FM081200 10010KT P6SM BKN010 FM081900 15017G25KT P6SM OVC030=
METAR KDVL
WC KDVL
WS KDVL
WV KDVL